Decoy, Kentucky
Current Conditions -  °F | °C
As of 9:53 PM on Thursday 27 Nov 2014 (Local Time) from KJKL Reporting Station
Overcast Overcast  
Wind Chill: 23°   Ceiling: 4100
Heat Index: 29°   Visibility: 8mi
Dew Point: 23°   Wind: 6mph
Humidity: 78%   Direction: 260°W
Pressure: 30.36"   Gusts: NA
Location:  37.532°N, 83.3068°W
Report Text: KJKL 280253Z AUTO 26005KT 8SM SCT015 OVC041 M02/M05 A3036 RMK AO2 SNE27 SLP293 P0000 60000 T10171050 51009
Loading
Personal Weather Stations






























Interactive Weather Map New forecast layout! Learn more

10-Day Weather Forecast

Advertisements
Track Severe Weather on mobile